Terminal Aerodrome Forecast
Issued by NWS

Home | Current Version | Previous Version | Text Only | Print | Product List | Glossary On
Versions: 1 2 3 4 5 6 7 8 9 10 11 12 13 14 15
000
FTUS43 KDTX 050520
TAFDET
TAF
KDET 050520Z 0506/0606 32006KT P6SM SCT080
     FM051700 34008KT P6SM SCT060
     FM052100 03005KT P6SM SKC=

USA.gov is the U.S. government's official web portal to all federal, state and local government web resources and services.